createdAt,value
2022-09-23T00:01:00.862Z,95945.00
2022-09-23T00:05:03.901Z,95943.00
2022-09-23T00:09:06.758Z,95940.00
2022-09-23T00:13:10.911Z,95939.00
2022-09-23T00:17:13.931Z,95930.00
2022-09-23T00:21:17.146Z,95927.00
2022-09-23T00:25:20.010Z,95932.00
2022-09-23T00:29:24.828Z,95934.00
2022-09-23T00:33:27.466Z,95926.00
2022-09-23T00:37:30.174Z,95913.00
2022-09-23T00:41:33.919Z,95916.00
2022-09-23T00:45:38.344Z,95900.00
2022-09-23T00:49:41.198Z,95907.00
2022-09-23T00:53:43.896Z,95905.00
2022-09-23T00:57:47.891Z,95896.00
2022-09-23T01:01:54.819Z,95903.00
2022-09-23T01:05:58.201Z,95887.00
2022-09-23T01:10:02.043Z,95891.00
2022-09-23T01:14:19.005Z,95884.00
2022-09-23T01:18:35.998Z,95883.00
2022-09-23T01:22:46.585Z,95876.00
2022-09-23T01:27:30.303Z,95874.00
2022-09-23T01:31:39.812Z,95871.00
2022-09-23T01:35:55.659Z,95866.00
2022-09-23T01:40:04.989Z,95857.00
2022-09-23T01:44:13.022Z,95855.00
2022-09-23T01:48:24.757Z,95853.00
2022-09-23T01:52:30.270Z,95845.00
2022-09-23T01:56:37.495Z,95839.00
2022-09-23T02:00:45.171Z,95842.00
2022-09-23T02:04:58.357Z,95844.00
2022-09-23T02:09:03.517Z,95838.00
2022-09-23T02:13:11.437Z,95838.00
2022-09-23T02:17:18.758Z,95844.00
2022-09-23T02:21:25.446Z,95840.00
2022-09-23T02:25:33.961Z,95846.00
2022-09-23T02:29:48.889Z,95847.00
2022-09-23T02:33:56.299Z,95849.00
2022-09-23T02:38:09.245Z,95839.00
2022-09-23T02:42:17.490Z,95842.00
2022-09-23T02:46:20.827Z,95833.00
2022-09-23T02:50:23.770Z,95833.00
2022-09-23T02:54:29.703Z,95836.00
2022-09-23T02:58:32.627Z,95841.00
2022-09-23T03:02:51.439Z,95823.00
2022-09-23T03:07:06.206Z,95823.00
2022-09-23T03:11:13.483Z,95828.00
2022-09-23T03:15:26.014Z,95821.00
2022-09-23T03:19:34.131Z,95823.00
2022-09-23T03:23:40.782Z,95813.00
2022-09-23T03:27:45.987Z,95815.00
2022-09-23T03:31:49.011Z,95818.00
2022-09-23T03:36:16.005Z,95815.00
2022-09-23T03:40:22.943Z,95806.00
2022-09-23T03:44:28.937Z,95797.00
2022-09-23T03:48:31.667Z,95800.00
2022-09-23T03:52:34.376Z,95808.00
2022-09-23T03:56:37.558Z,95807.00
2022-09-23T04:00:42.297Z,95801.00
2022-09-23T04:04:45.324Z,95794.00
2022-09-23T04:08:48.061Z,95788.00
2022-09-23T04:12:50.726Z,95792.00
2022-09-23T04:16:54.810Z,95793.00
2022-09-23T04:21:00.974Z,95795.00
2022-09-23T04:25:03.653Z,95795.00
2022-09-23T04:29:06.880Z,95788.00
2022-09-23T04:33:11.790Z,95783.00
2022-09-23T04:37:14.485Z,95785.00
2022-09-23T04:41:17.903Z,95777.00
2022-09-23T04:45:20.571Z,95780.00
2022-09-23T04:49:24.609Z,95790.00
2022-09-23T04:53:27.540Z,95784.00
2022-09-23T04:57:30.274Z,95788.00
2022-09-23T05:01:34.542Z,95791.00
2022-09-23T05:05:38.773Z,95801.00
2022-09-23T05:09:41.468Z,95798.00
2022-09-23T05:13:44.165Z,95795.00
2022-09-23T05:17:46.866Z,95796.00
2022-09-23T05:21:50.879Z,95798.00
2022-09-23T05:25:58.273Z,95802.00
2022-09-23T05:30:01.013Z,95799.00
2022-09-23T05:34:06.075Z,95800.00
2022-09-23T05:38:10.159Z,95805.00
2022-09-23T05:42:13.298Z,95790.00
2022-09-23T05:46:17.736Z,95800.00
2022-09-23T05:50:20.502Z,95800.00
2022-09-23T05:54:24.538Z,95802.00
2022-09-23T05:58:27.740Z,95799.00
2022-09-23T06:02:30.497Z,95800.00
2022-09-23T06:06:35.957Z,95799.00
2022-09-23T06:10:41.533Z,95807.00
2022-09-23T06:14:44.222Z,95796.00
2022-09-23T06:18:47.212Z,95805.00
2022-09-23T06:22:53.613Z,95810.00
2022-09-23T06:26:59.135Z,95804.00
2022-09-23T06:31:03.966Z,95802.00
2022-09-23T06:35:13.509Z,95806.00
2022-09-23T06:39:22.352Z,95806.00
2022-09-23T06:43:27.359Z,95804.00
2022-09-23T06:47:30.103Z,95803.00
2022-09-23T06:51:33.371Z,95801.00
2022-09-23T06:55:36.152Z,95803.00
2022-09-23T06:59:40.223Z,95802.00
2022-09-23T07:03:43.463Z,95804.00
2022-09-23T07:07:46.278Z,95807.00
2022-09-23T07:11:49.023Z,95808.00
2022-09-23T07:15:53.834Z,95815.00
2022-09-23T07:19:57.321Z,95804.00
2022-09-23T07:24:00.234Z,95812.00
2022-09-23T07:28:03.312Z,95817.00
2022-09-23T07:32:13.770Z,95821.00
2022-09-23T07:36:19.683Z,95821.00
2022-09-23T07:40:23.405Z,95836.00
2022-09-23T07:44:26.983Z,95829.00
2022-09-23T07:48:34.357Z,95833.00
2022-09-23T07:52:37.921Z,95835.00
2022-09-23T07:56:41.114Z,95850.00
2022-09-23T08:00:43.791Z,95847.00
2022-09-23T08:04:49.531Z,95852.00
2022-09-23T08:08:53.488Z,95852.00
2022-09-23T08:12:56.310Z,95871.00
2022-09-23T08:16:59.453Z,95861.00
2022-09-23T08:21:03.790Z,95861.00
2022-09-23T08:25:10.126Z,95862.00
2022-09-23T08:29:14.137Z,95861.00
2022-09-23T08:33:22.464Z,95863.00
2022-09-23T08:37:27.320Z,95866.00
2022-09-23T08:41:40.729Z,95870.00
2022-09-23T08:45:45.598Z,95865.00
2022-09-23T08:49:56.589Z,95866.00
2022-09-23T08:54:01.254Z,95874.00
2022-09-23T08:58:28.580Z,95873.00
2022-09-23T09:02:34.198Z,95872.00
2022-09-23T09:06:52.388Z,95873.00
2022-09-23T09:10:59.226Z,95870.00
2022-09-23T09:15:07.781Z,95871.00
2022-09-23T09:19:18.858Z,95866.00
2022-09-23T09:23:23.857Z,95868.00
2022-09-23T09:27:28.037Z,95862.00
2022-09-23T09:31:33.880Z,95859.00
2022-09-23T09:35:41.714Z,95852.00
2022-09-23T09:39:44.503Z,95859.00
2022-09-23T09:43:53.366Z,95856.00
2022-09-23T09:48:05.759Z,95863.00
2022-09-23T09:52:20.237Z,95864.00
2022-09-23T09:56:31.326Z,95858.00
2022-09-23T10:00:44.200Z,95863.00
2022-09-23T10:04:47.015Z,95858.00
2022-09-23T10:09:06.775Z,95850.00
2022-09-23T10:13:16.095Z,95849.00
2022-09-23T10:17:22.312Z,95846.00
2022-09-23T10:21:28.802Z,95849.00
2022-09-23T10:25:31.613Z,95844.00
2022-09-23T10:29:39.654Z,95847.00
2022-09-23T10:33:49.338Z,95836.00
2022-09-23T10:37:53.885Z,95846.00
2022-09-23T10:42:35.169Z,95853.00
2022-09-23T10:46:41.697Z,95843.00
2022-09-23T10:50:49.674Z,95831.00
2022-09-23T10:55:06.698Z,95838.00
2022-09-23T10:59:30.416Z,95829.00
2022-09-23T11:04:02.829Z,95828.00
2022-09-23T11:08:27.443Z,95829.00
2022-09-23T11:12:39.887Z,95830.00
2022-09-23T11:16:45.960Z,95833.00
2022-09-23T11:21:00.423Z,95827.00
2022-09-23T11:25:21.272Z,95819.00
2022-09-23T11:29:46.546Z,95809.00
2022-09-23T11:34:02.477Z,95814.00
2022-09-23T11:38:09.374Z,95809.00
2022-09-23T11:42:18.490Z,95798.00
2022-09-23T11:46:31.701Z,95800.00
2022-09-23T11:50:38.769Z,95794.00
2022-09-23T11:54:47.141Z,95793.00
2022-09-23T11:59:01.228Z,95789.00
2022-09-23T12:03:13.291Z,95790.00
2022-09-23T12:07:20.990Z,95776.00
2022-09-23T12:11:30.320Z,95773.00
2022-09-23T12:15:50.479Z,95774.00
2022-09-23T12:20:21.861Z,95765.00
2022-09-23T12:24:46.774Z,95759.00
2022-09-23T12:28:52.770Z,95765.00
2022-09-23T12:33:08.890Z,95762.00
2022-09-23T12:37:11.671Z,95759.00
2022-09-23T12:41:25.392Z,95758.00
2022-09-23T12:45:39.781Z,95757.00
2022-09-23T12:49:44.311Z,95749.00
2022-09-23T12:53:57.128Z,95748.00
2022-09-23T12:57:59.849Z,95743.00
2022-09-23T13:02:25.603Z,95735.00
2022-09-23T13:06:38.986Z,95730.00
2022-09-23T13:10:46.527Z,95730.00
2022-09-23T13:14:52.918Z,95721.00
2022-09-23T13:18:56.947Z,95708.00
2022-09-23T13:23:21.377Z,95710.00
2022-09-23T13:27:29.262Z,95707.00
2022-09-23T13:31:32.124Z,95706.00
2022-09-23T13:35:38.206Z,95701.00
2022-09-23T13:39:42.338Z,95692.00
2022-09-23T13:43:47.307Z,95680.00
2022-09-23T13:47:51.525Z,95678.00
2022-09-23T13:51:56.993Z,95677.00
2022-09-23T13:56:07.093Z,95679.00
2022-09-23T14:00:18.948Z,95683.00
2022-09-23T14:04:25.327Z,95674.00
2022-09-23T14:08:29.868Z,95683.00
2022-09-23T14:12:39.883Z,95671.00
2022-09-23T14:16:43.604Z,95671.00
2022-09-23T14:20:47.944Z,95669.00
2022-09-23T14:24:51.391Z,95673.00
2022-09-23T14:28:55.630Z,95657.00
2022-09-23T14:32:59.357Z,95656.00
2022-09-23T14:37:30.380Z,95645.00
2022-09-23T14:41:38.535Z,95649.00
2022-09-23T14:45:47.041Z,95637.00
2022-09-23T14:50:05.670Z,95630.00
2022-09-23T14:54:43.694Z,95627.00
2022-09-23T14:58:53.443Z,95632.00
2022-09-23T15:03:01.799Z,95629.00
2022-09-23T15:07:08.666Z,95631.00
2022-09-23T15:11:12.022Z,95624.00
2022-09-23T15:15:15.843Z,95617.00
2022-09-23T15:19:21.824Z,95608.00
2022-09-23T15:23:36.564Z,95610.00
2022-09-23T15:27:39.279Z,95609.00
2022-09-23T15:31:42.692Z,95605.00
2022-09-23T15:35:49.230Z,95609.00
2022-09-23T15:39:51.922Z,95606.00
2022-09-23T15:43:56.316Z,95604.00
2022-09-23T15:48:03.199Z,95602.00
2022-09-23T15:52:09.650Z,95593.00
2022-09-23T15:56:13.194Z,95597.00
2022-09-23T16:00:16.894Z,95589.00
2022-09-23T16:04:19.747Z,95595.00
2022-09-23T16:08:24.343Z,95608.00
2022-09-23T16:12:27.122Z,95602.00
2022-09-23T16:16:31.052Z,95600.00
2022-09-23T16:20:36.684Z,95596.00
2022-09-23T16:24:41.127Z,95594.00
2022-09-23T16:28:44.591Z,95596.00
2022-09-23T16:32:47.288Z,95599.00
2022-09-23T16:36:50.096Z,95599.00
2022-09-23T16:40:55.812Z,95587.00
2022-09-23T16:44:58.576Z,95604.00
2022-09-23T16:49:01.347Z,95605.00
2022-09-23T16:53:04.270Z,95605.00
2022-09-23T16:57:09.086Z,95605.00
2022-09-23T17:01:33.601Z,95604.00
2022-09-23T17:05:36.505Z,95608.00
2022-09-23T17:09:39.418Z,95610.00
2022-09-23T17:13:43.785Z,95616.00
2022-09-23T17:17:46.543Z,95619.00
2022-09-23T17:21:49.259Z,95609.00
2022-09-23T17:25:51.938Z,95614.00
2022-09-23T17:29:56.050Z,95621.00
2022-09-23T17:33:58.751Z,95620.00
2022-09-23T17:38:01.439Z,95623.00
2022-09-23T17:42:04.451Z,95622.00
2022-09-23T17:46:10.672Z,95618.00
2022-09-23T17:50:14.855Z,95625.00
2022-09-23T17:54:17.589Z,95619.00
2022-09-23T17:58:20.297Z,95615.00
2022-09-23T18:02:24.406Z,95611.00
2022-09-23T18:06:29.008Z,95615.00
2022-09-23T18:10:32.119Z,95611.00
2022-09-23T18:14:34.832Z,95605.00
2022-09-23T18:18:39.167Z,95617.00
2022-09-23T18:22:41.843Z,95614.00
2022-09-23T18:26:44.939Z,95615.00
2022-09-23T18:30:53.770Z,95603.00
2022-09-23T18:34:57.830Z,95607.00
2022-09-23T18:39:01.196Z,95611.00
2022-09-23T18:43:05.005Z,95608.00
2022-09-23T18:47:07.772Z,95614.00
2022-09-23T18:51:11.599Z,95611.00
2022-09-23T18:55:14.494Z,95614.00
2022-09-23T18:59:19.590Z,95624.00
2022-09-23T19:03:22.355Z,95621.00
2022-09-23T19:07:26.843Z,95616.00
2022-09-23T19:11:29.687Z,95612.00
2022-09-23T19:15:33.702Z,95603.00
2022-09-23T19:19:36.731Z,95608.00
2022-09-23T19:23:46.699Z,95608.00
2022-09-23T19:27:50.178Z,95605.00
2022-09-23T19:31:52.961Z,95596.00
2022-09-23T19:35:55.654Z,95598.00
2022-09-23T19:39:59.686Z,95592.00
2022-09-23T19:44:03.605Z,95593.00
2022-09-23T19:48:09.034Z,95602.00
2022-09-23T19:52:11.701Z,95594.00
2022-09-23T19:56:17.685Z,95580.00
2022-09-23T20:00:20.807Z,95577.00
2022-09-23T20:04:23.666Z,95579.00
2022-09-23T20:08:27.055Z,95570.00
2022-09-23T20:12:34.200Z,95570.00
2022-09-23T20:16:37.765Z,95574.00
2022-09-23T20:20:40.574Z,95571.00
2022-09-23T20:24:43.258Z,95568.00
2022-09-23T20:28:47.543Z,95563.00
2022-09-23T20:32:50.327Z,95564.00
2022-09-23T20:36:53.035Z,95559.00
2022-09-23T20:40:56.732Z,95554.00
2022-09-23T20:45:00.738Z,95552.00
2022-09-23T20:49:03.910Z,95546.00
2022-09-23T20:53:06.894Z,95540.00
2022-09-23T20:57:12.618Z,95541.00
2022-09-23T21:01:17.372Z,95540.00
2022-09-23T21:05:20.135Z,95536.00
2022-09-23T21:09:22.827Z,95540.00
2022-09-23T21:13:26.139Z,95531.00
2022-09-23T21:17:30.324Z,95531.00
2022-09-23T21:21:33.004Z,95529.00
2022-09-23T21:25:36.645Z,95526.00
2022-09-23T21:29:40.113Z,95530.00
2022-09-23T21:33:44.146Z,95523.00
2022-09-23T21:37:47.065Z,95519.00
2022-09-23T21:41:51.226Z,95518.00
2022-09-23T21:45:59.492Z,95513.00
2022-09-23T21:50:04.124Z,95533.00
2022-09-23T21:54:08.234Z,95524.00
2022-09-23T21:58:10.946Z,95514.00
2022-09-23T22:02:13.628Z,95503.00
2022-09-23T22:06:21.165Z,95511.00
2022-09-23T22:10:23.857Z,95496.00
2022-09-23T22:14:27.150Z,95502.00
2022-09-23T22:18:29.910Z,95497.00
2022-09-23T22:22:33.964Z,95506.00
2022-09-23T22:26:37.969Z,95491.00
2022-09-23T22:30:58.381Z,95484.00
2022-09-23T22:35:01.142Z,95497.00
2022-09-23T22:39:05.459Z,95488.00
2022-09-23T22:43:08.842Z,95497.00
2022-09-23T22:47:11.815Z,95487.00
2022-09-23T22:51:14.504Z,95493.00
2022-09-23T22:55:18.622Z,95487.00
2022-09-23T22:59:23.138Z,95496.00
2022-09-23T23:03:27.347Z,95475.00
2022-09-23T23:07:30.176Z,95463.00
2022-09-23T23:11:34.283Z,95468.00
2022-09-23T23:15:38.810Z,95461.00
2022-09-23T23:19:41.521Z,95472.00
2022-09-23T23:23:45.852Z,95460.00
2022-09-23T23:27:49.872Z,95470.00
2022-09-23T23:31:52.775Z,95461.00
2022-09-23T23:35:55.509Z,95458.00
2022-09-23T23:39:58.347Z,95450.00
2022-09-23T23:44:02.862Z,95451.00
2022-09-23T23:48:05.657Z,95458.00
2022-09-23T23:52:08.376Z,95449.00
2022-09-23T23:56:13.105Z,95451.00
